Picton, New Zealand
Current Conditions -  °F | °C
As of 3:30 AM on Wednesday 22 Oct 2014 (Local Time) from NZWN Reporting Station
Clear Clear  
Wind Chill: 52°   Ceiling: Unl
Heat Index: 52°   Visibility: 6mi
Dew Point: 37°   Wind: 5mph
Humidity: 58%   Direction: 120°ESE
Pressure: 30.21"   Gusts: NA
Location:  41.3°S, 174.01°E
Report Text: NZWN 211530Z AUTO 12004KT 9999 NCD 11/03 Q1023 NOSIG
Loading
Personal Weather Stations






























Interactive Weather Map
Tropical Storm Tracking
New forecast layout! Learn more

10-Day Weather Forecast

Advertisements
Track Severe Weather on mobile